sensor_id;sensor_type;location;lat;lon;timestamp;temperature;humidity
31967;DHT22;18496;52.042;6.812;2023-03-23T00:00:13;12.90;99.90
31967;DHT22;18496;52.042;6.812;2023-03-23T00:02:17;12.90;99.90
31967;DHT22;18496;52.042;6.812;2023-03-23T00:04:21;12.90;99.90
31967;DHT22;18496;52.042;6.812;2023-03-23T00:06:25;12.90;99.90
31967;DHT22;18496;52.042;6.812;2023-03-23T00:08:39;12.90;99.90
31967;DHT22;18496;52.042;6.812;2023-03-23T00:10:49;12.90;99.90
31967;DHT22;18496;52.042;6.812;2023-03-23T00:12:55;12.90;99.90
31967;DHT22;18496;52.042;6.812;2023-03-23T00:17:03;13.00;99.90
31967;DHT22;18496;52.042;6.812;2023-03-23T00:19:08;12.90;99.90
31967;DHT22;18496;52.042;6.812;2023-03-23T00:21:12;12.90;99.90
31967;DHT22;18496;52.042;6.812;2023-03-23T00:23:16;12.90;99.90
31967;DHT22;18496;52.042;6.812;2023-03-23T00:25:21;13.00;99.90
31967;DHT22;18496;52.042;6.812;2023-03-23T00:27:25;13.00;99.90
31967;DHT22;18496;52.042;6.812;2023-03-23T00:29:29;13.00;99.90
31967;DHT22;18496;52.042;6.812;2023-03-23T00:31:32;13.00;99.90
31967;DHT22;18496;52.042;6.812;2023-03-23T00:33:39;12.90;99.90
31967;DHT22;18496;52.042;6.812;2023-03-23T00:35:44;13.00;99.90
31967;DHT22;18496;52.042;6.812;2023-03-23T00:37:47;13.00;99.90
31967;DHT22;18496;52.042;6.812;2023-03-23T00:39:51;13.00;99.90
31967;DHT22;18496;52.042;6.812;2023-03-23T00:42:00;13.00;99.90
31967;DHT22;18496;52.042;6.812;2023-03-23T00:44:04;13.00;99.90
31967;DHT22;18496;52.042;6.812;2023-03-23T00:46:07;13.00;99.90
31967;DHT22;18496;52.042;6.812;2023-03-23T00:48:12;13.00;99.90
31967;DHT22;18496;52.042;6.812;2023-03-23T00:50:16;13.00;99.90
31967;DHT22;18496;52.042;6.812;2023-03-23T00:52:21;13.00;99.90
31967;DHT22;18496;52.042;6.812;2023-03-23T00:54:25;13.00;99.90
31967;DHT22;18496;52.042;6.812;2023-03-23T00:56:28;13.10;99.90
31967;DHT22;18496;52.042;6.812;2023-03-23T00:58:32;13.10;99.90
31967;DHT22;18496;52.042;6.812;2023-03-23T01:00:36;13.10;99.90
31967;DHT22;18496;52.042;6.812;2023-03-23T01:02:40;13.10;99.90
31967;DHT22;18496;52.042;6.812;2023-03-23T01:04:43;13.10;99.90
31967;DHT22;18496;52.042;6.812;2023-03-23T01:06:55;13.10;99.90
31967;DHT22;18496;52.042;6.812;2023-03-23T01:08:59;13.10;99.90
31967;DHT22;18496;52.042;6.812;2023-03-23T01:11:04;13.10;99.90
31967;DHT22;18496;52.042;6.812;2023-03-23T01:13:09;13.10;99.90
31967;DHT22;18496;52.042;6.812;2023-03-23T01:15:13;13.20;99.90
31967;DHT22;18496;52.042;6.812;2023-03-23T01:17:17;13.20;99.90
31967;DHT22;18496;52.042;6.812;2023-03-23T01:19:22;13.20;99.90
31967;DHT22;18496;52.042;6.812;2023-03-23T01:21:31;13.20;99.90
31967;DHT22;18496;52.042;6.812;2023-03-23T01:23:35;13.20;99.90
31967;DHT22;18496;52.042;6.812;2023-03-23T01:25:38;13.20;99.90
31967;DHT22;18496;52.042;6.812;2023-03-23T01:27:42;13.20;99.90
31967;DHT22;18496;52.042;6.812;2023-03-23T01:29:46;13.20;99.90
31967;DHT22;18496;52.042;6.812;2023-03-23T01:31:50;13.20;99.90
31967;DHT22;18496;52.042;6.812;2023-03-23T01:33:54;13.20;99.90
31967;DHT22;18496;52.042;6.812;2023-03-23T01:36:07;13.20;99.90
31967;DHT22;18496;52.042;6.812;2023-03-23T01:38:11;13.30;99.90
31967;DHT22;18496;52.042;6.812;2023-03-23T01:40:15;13.30;99.90
31967;DHT22;18496;52.042;6.812;2023-03-23T01:42:23;13.30;99.90
31967;DHT22;18496;52.042;6.812;2023-03-23T01:46:45;13.30;99.90
31967;DHT22;18496;52.042;6.812;2023-03-23T01:48:48;13.30;99.90
31967;DHT22;18496;52.042;6.812;2023-03-23T01:51:01;13.30;99.90
31967;DHT22;18496;52.042;6.812;2023-03-23T01:53:07;13.30;99.90
31967;DHT22;18496;52.042;6.812;2023-03-23T01:55:13;13.30;99.90
31967;DHT22;18496;52.042;6.812;2023-03-23T01:57:18;13.30;99.90
31967;DHT22;18496;52.042;6.812;2023-03-23T01:59:23;13.30;99.90
31967;DHT22;18496;52.042;6.812;2023-03-23T02:01:39;13.30;99.90
31967;DHT22;18496;52.042;6.812;2023-03-23T02:03:48;13.30;99.90
31967;DHT22;18496;52.042;6.812;2023-03-23T02:05:52;13.30;99.90
31967;DHT22;18496;52.042;6.812;2023-03-23T02:08:10;13.30;99.90
31967;DHT22;18496;52.042;6.812;2023-03-23T02:10:14;13.30;99.90
31967;DHT22;18496;52.042;6.812;2023-03-23T02:12:21;13.30;99.90
31967;DHT22;18496;52.042;6.812;2023-03-23T02:14:27;13.30;99.90
31967;DHT22;18496;52.042;6.812;2023-03-23T02:32:07;13.20;99.90
31967;DHT22;18496;52.042;6.812;2023-03-23T02:36:59;13.20;99.90
31967;DHT22;18496;52.042;6.812;2023-03-23T02:39:05;13.20;99.90
31967;DHT22;18496;52.042;6.812;2023-03-23T02:41:12;13.20;99.90
31967;DHT22;18496;52.042;6.812;2023-03-23T02:43:17;13.10;99.90
31967;DHT22;18496;52.042;6.812;2023-03-23T02:45:23;13.10;99.90
31967;DHT22;18496;52.042;6.812;2023-03-23T02:47:29;13.10;99.90
31967;DHT22;18496;52.042;6.812;2023-03-23T02:49:34;13.10;99.90
31967;DHT22;18496;52.042;6.812;2023-03-23T02:51:40;13.10;99.90
31967;DHT22;18496;52.042;6.812;2023-03-23T02:53:45;13.10;99.90
31967;DHT22;18496;52.042;6.812;2023-03-23T02:55:50;13.10;99.90
31967;DHT22;18496;52.042;6.812;2023-03-23T02:57:57;13.10;99.90
31967;DHT22;18496;52.042;6.812;2023-03-23T03:00:01;13.10;99.90
31967;DHT22;18496;52.042;6.812;2023-03-23T03:02:29;13.10;99.90
31967;DHT22;18496;52.042;6.812;2023-03-23T03:04:32;13.10;99.90
31967;DHT22;18496;52.042;6.812;2023-03-23T03:09:06;13.10;99.90
31967;DHT22;18496;52.042;6.812;2023-03-23T03:11:11;13.10;99.90
31967;DHT22;18496;52.042;6.812;2023-03-23T03:15:43;13.10;99.90
31967;DHT22;18496;52.042;6.812;2023-03-23T03:17:53;13.20;99.90
31967;DHT22;18496;52.042;6.812;2023-03-23T03:20:00;13.10;99.90
31967;DHT22;18496;52.042;6.812;2023-03-23T03:22:10;13.10;99.90
31967;DHT22;18496;52.042;6.812;2023-03-23T03:24:17;13.10;99.90
31967;DHT22;18496;52.042;6.812;2023-03-23T03:26:25;13.10;99.90
31967;DHT22;18496;52.042;6.812;2023-03-23T03:28:33;13.20;99.90
31967;DHT22;18496;52.042;6.812;2023-03-23T03:30:37;13.20;99.90
31967;DHT22;18496;52.042;6.812;2023-03-23T03:32:43;13.20;99.90
31967;DHT22;18496;52.042;6.812;2023-03-23T03:34:49;13.20;99.90
31967;DHT22;18496;52.042;6.812;2023-03-23T03:36:55;13.20;99.90
31967;DHT22;18496;52.042;6.812;2023-03-23T03:39:03;13.20;99.90
31967;DHT22;18496;52.042;6.812;2023-03-23T03:41:08;13.20;99.90
31967;DHT22;18496;52.042;6.812;2023-03-23T03:43:12;13.20;99.90
31967;DHT22;18496;52.042;6.812;2023-03-23T03:45:18;13.20;99.90
31967;DHT22;18496;52.042;6.812;2023-03-23T03:47:22;13.20;99.90
31967;DHT22;18496;52.042;6.812;2023-03-23T03:49:26;13.20;99.90
31967;DHT22;18496;52.042;6.812;2023-03-23T03:51:31;13.30;99.90
31967;DHT22;18496;52.042;6.812;2023-03-23T03:53:35;13.30;99.90
31967;DHT22;18496;52.042;6.812;2023-03-23T03:55:39;13.30;99.90
31967;DHT22;18496;52.042;6.812;2023-03-23T03:57:51;13.30;99.90
31967;DHT22;18496;52.042;6.812;2023-03-23T04:00:12;13.30;99.90
31967;DHT22;18496;52.042;6.812;2023-03-23T04:02:28;13.30;99.90
31967;DHT22;18496;52.042;6.812;2023-03-23T04:04:32;13.30;99.90
31967;DHT22;18496;52.042;6.812;2023-03-23T04:06:39;13.30;99.90
31967;DHT22;18496;52.042;6.812;2023-03-23T04:08:42;13.30;99.90
31967;DHT22;18496;52.042;6.812;2023-03-23T04:10:48;13.30;99.90
31967;DHT22;18496;52.042;6.812;2023-03-23T04:12:52;13.20;99.90
31967;DHT22;18496;52.042;6.812;2023-03-23T04:15:15;13.20;99.90
31967;DHT22;18496;52.042;6.812;2023-03-23T04:17:20;13.20;99.90
31967;DHT22;18496;52.042;6.812;2023-03-23T04:19:24;13.10;99.90
31967;DHT22;18496;52.042;6.812;2023-03-23T04:21:28;13.20;99.90
31967;DHT22;18496;52.042;6.812;2023-03-23T04:23:35;13.10;99.90
31967;DHT22;18496;52.042;6.812;2023-03-23T04:25:40;13.20;99.90
31967;DHT22;18496;52.042;6.812;2023-03-23T04:27:46;13.20;99.90
31967;DHT22;18496;52.042;6.812;2023-03-23T04:29:55;13.20;99.90
31967;DHT22;18496;52.042;6.812;2023-03-23T04:32:21;13.20;99.90
31967;DHT22;18496;52.042;6.812;2023-03-23T04:34:29;13.20;99.90
31967;DHT22;18496;52.042;6.812;2023-03-23T04:36:35;13.20;99.90
31967;DHT22;18496;52.042;6.812;2023-03-23T04:38:47;13.20;99.90
31967;DHT22;18496;52.042;6.812;2023-03-23T04:40:57;13.30;99.90
31967;DHT22;18496;52.042;6.812;2023-03-23T04:43:21;13.30;99.90
31967;DHT22;18496;52.042;6.812;2023-03-23T04:45:45;13.30;99.90
31967;DHT22;18496;52.042;6.812;2023-03-23T04:47:51;13.30;99.90
31967;DHT22;18496;52.042;6.812;2023-03-23T04:50:10;13.30;99.90
31967;DHT22;18496;52.042;6.812;2023-03-23T04:52:15;13.30;99.90
31967;DHT22;18496;52.042;6.812;2023-03-23T04:54:22;13.30;99.90
31967;DHT22;18496;52.042;6.812;2023-03-23T04:56:30;13.30;99.90
31967;DHT22;18496;52.042;6.812;2023-03-23T04:58:47;13.30;99.90
31967;DHT22;18496;52.042;6.812;2023-03-23T05:01:10;13.30;99.90
31967;DHT22;18496;52.042;6.812;2023-03-23T05:03:22;13.40;99.90
31967;DHT22;18496;52.042;6.812;2023-03-23T05:05:29;13.40;99.90
31967;DHT22;18496;52.042;6.812;2023-03-23T05:07:35;13.40;99.90
31967;DHT22;18496;52.042;6.812;2023-03-23T05:09:39;13.40;99.90
31967;DHT22;18496;52.042;6.812;2023-03-23T05:11:44;13.40;99.90
31967;DHT22;18496;52.042;6.812;2023-03-23T05:13:48;13.40;99.90
31967;DHT22;18496;52.042;6.812;2023-03-23T05:15:52;13.40;99.90
31967;DHT22;18496;52.042;6.812;2023-03-23T05:17:56;13.40;99.90
31967;DHT22;18496;52.042;6.812;2023-03-23T05:20:01;13.40;99.90
31967;DHT22;18496;52.042;6.812;2023-03-23T05:22:15;13.40;99.90
31967;DHT22;18496;52.042;6.812;2023-03-23T05:24:25;13.40;99.90
31967;DHT22;18496;52.042;6.812;2023-03-23T05:26:29;13.40;99.90
31967;DHT22;18496;52.042;6.812;2023-03-23T05:28:40;13.40;99.90
31967;DHT22;18496;52.042;6.812;2023-03-23T05:31:06;13.40;99.90
31967;DHT22;18496;52.042;6.812;2023-03-23T05:33:10;13.40;99.90
31967;DHT22;18496;52.042;6.812;2023-03-23T05:35:32;13.40;99.90
31967;DHT22;18496;52.042;6.812;2023-03-23T05:37:39;13.40;99.90
31967;DHT22;18496;52.042;6.812;2023-03-23T05:39:45;13.40;99.90
31967;DHT22;18496;52.042;6.812;2023-03-23T05:41:51;13.50;99.90
31967;DHT22;18496;52.042;6.812;2023-03-23T05:43:56;13.40;99.90
31967;DHT22;18496;52.042;6.812;2023-03-23T05:46:07;13.50;99.90
31967;DHT22;18496;52.042;6.812;2023-03-23T05:48:12;13.50;99.90
31967;DHT22;18496;52.042;6.812;2023-03-23T05:50:16;13.50;99.90
31967;DHT22;18496;52.042;6.812;2023-03-23T05:52:20;13.50;99.90
31967;DHT22;18496;52.042;6.812;2023-03-23T05:54:28;13.50;99.90
31967;DHT22;18496;52.042;6.812;2023-03-23T05:56:32;13.40;99.90
31967;DHT22;18496;52.042;6.812;2023-03-23T05:58:56;13.40;99.90
31967;DHT22;18496;52.042;6.812;2023-03-23T06:01:07;13.40;99.90
31967;DHT22;18496;52.042;6.812;2023-03-23T06:03:11;13.40;99.90
31967;DHT22;18496;52.042;6.812;2023-03-23T06:05:23;13.40;99.90
31967;DHT22;18496;52.042;6.812;2023-03-23T06:07:31;13.40;99.90
31967;DHT22;18496;52.042;6.812;2023-03-23T06:09:39;13.40;99.90
31967;DHT22;18496;52.042;6.812;2023-03-23T06:12:12;13.40;99.90
31967;DHT22;18496;52.042;6.812;2023-03-23T06:14:25;13.40;99.90
31967;DHT22;18496;52.042;6.812;2023-03-23T06:16:29;13.40;99.90
31967;DHT22;18496;52.042;6.812;2023-03-23T06:18:35;13.40;99.90
31967;DHT22;18496;52.042;6.812;2023-03-23T06:20:49;13.40;99.90
31967;DHT22;18496;52.042;6.812;2023-03-23T06:23:03;13.40;99.90
31967;DHT22;18496;52.042;6.812;2023-03-23T06:25:10;13.40;99.90
31967;DHT22;18496;52.042;6.812;2023-03-23T06:27:20;13.40;99.90
31967;DHT22;18496;52.042;6.812;2023-03-23T06:29:24;13.40;99.90
31967;DHT22;18496;52.042;6.812;2023-03-23T06:31:31;13.40;99.90
31967;DHT22;18496;52.042;6.812;2023-03-23T06:33:37;13.40;99.90
31967;DHT22;18496;52.042;6.812;2023-03-23T06:36:01;13.40;99.90
31967;DHT22;18496;52.042;6.812;2023-03-23T06:38:40;13.40;99.90
31967;DHT22;18496;52.042;6.812;2023-03-23T06:40:44;13.40;99.90
31967;DHT22;18496;52.042;6.812;2023-03-23T06:42:50;13.40;99.90
31967;DHT22;18496;52.042;6.812;2023-03-23T06:45:24;13.40;99.90
31967;DHT22;18496;52.042;6.812;2023-03-23T06:47:37;13.40;99.90
31967;DHT22;18496;52.042;6.812;2023-03-23T06:49:41;13.40;99.90
31967;DHT22;18496;52.042;6.812;2023-03-23T06:52:05;13.40;99.90
31967;DHT22;18496;52.042;6.812;2023-03-23T06:54:11;13.50;99.90
31967;DHT22;18496;52.042;6.812;2023-03-23T06:56:17;13.50;99.90
31967;DHT22;18496;52.042;6.812;2023-03-23T06:58:21;13.40;99.90
31967;DHT22;18496;52.042;6.812;2023-03-23T07:00:27;13.50;99.90
31967;DHT22;18496;52.042;6.812;2023-03-23T07:02:30;13.50;99.90
31967;DHT22;18496;52.042;6.812;2023-03-23T07:04:34;13.50;99.90
31967;DHT22;18496;52.042;6.812;2023-03-23T07:06:50;13.50;99.90
31967;DHT22;18496;52.042;6.812;2023-03-23T07:08:55;13.50;99.90
31967;DHT22;18496;52.042;6.812;2023-03-23T07:11:02;13.50;99.90
31967;DHT22;18496;52.042;6.812;2023-03-23T07:13:07;13.50;99.90
31967;DHT22;18496;52.042;6.812;2023-03-23T07:15:22;13.60;99.90
31967;DHT22;18496;52.042;6.812;2023-03-23T07:17:28;13.60;99.90
31967;DHT22;18496;52.042;6.812;2023-03-23T07:20:04;13.60;99.90
31967;DHT22;18496;52.042;6.812;2023-03-23T07:22:09;13.60;99.90
31967;DHT22;18496;52.042;6.812;2023-03-23T07:24:13;13.60;99.90
31967;DHT22;18496;52.042;6.812;2023-03-23T07:26:40;13.60;99.90
31967;DHT22;18496;52.042;6.812;2023-03-23T07:28:44;13.60;99.90
31967;DHT22;18496;52.042;6.812;2023-03-23T07:31:16;13.60;99.90
31967;DHT22;18496;52.042;6.812;2023-03-23T07:33:20;13.60;99.90
31967;DHT22;18496;52.042;6.812;2023-03-23T07:35:24;13.60;99.90
31967;DHT22;18496;52.042;6.812;2023-03-23T07:37:36;13.70;99.90
31967;DHT22;18496;52.042;6.812;2023-03-23T07:39:39;13.60;99.90
31967;DHT22;18496;52.042;6.812;2023-03-23T07:41:44;13.70;99.90
31967;DHT22;18496;52.042;6.812;2023-03-23T07:44:03;13.60;99.90
31967;DHT22;18496;52.042;6.812;2023-03-23T07:46:11;13.70;99.90
31967;DHT22;18496;52.042;6.812;2023-03-23T07:48:40;13.70;99.90
31967;DHT22;18496;52.042;6.812;2023-03-23T07:50:45;13.70;99.90
31967;DHT22;18496;52.042;6.812;2023-03-23T07:52:51;13.70;99.90
31967;DHT22;18496;52.042;6.812;2023-03-23T07:54:56;13.70;99.90
31967;DHT22;18496;52.042;6.812;2023-03-23T07:57:15;13.70;99.90
31967;DHT22;18496;52.042;6.812;2023-03-23T07:59:27;13.70;99.90
31967;DHT22;18496;52.042;6.812;2023-03-23T08:01:34;13.70;99.90
31967;DHT22;18496;52.042;6.812;2023-03-23T08:03:57;13.60;99.90
31967;DHT22;18496;52.042;6.812;2023-03-23T08:06:24;13.60;99.90
31967;DHT22;18496;52.042;6.812;2023-03-23T08:08:54;13.60;99.90
31967;DHT22;18496;52.042;6.812;2023-03-23T08:11:17;13.60;99.90
31967;DHT22;18496;52.042;6.812;2023-03-23T08:13:31;13.60;99.90
31967;DHT22;18496;52.042;6.812;2023-03-23T08:16:10;13.60;99.90
31967;DHT22;18496;52.042;6.812;2023-03-23T08:18:29;13.50;99.90
31967;DHT22;18496;52.042;6.812;2023-03-23T08:20:46;13.40;99.90
31967;DHT22;18496;52.042;6.812;2023-03-23T08:23:19;13.40;99.90
31967;DHT22;18496;52.042;6.812;2023-03-23T08:25:51;13.40;99.90
31967;DHT22;18496;52.042;6.812;2023-03-23T08:28:08;13.30;99.90
31967;DHT22;18496;52.042;6.812;2023-03-23T08:30:38;13.20;99.90
31967;DHT22;18496;52.042;6.812;2023-03-23T08:33:03;13.10;99.90
31967;DHT22;18496;52.042;6.812;2023-03-23T08:35:24;13.00;99.90
31967;DHT22;18496;52.042;6.812;2023-03-23T08:37:40;13.00;99.90
31967;DHT22;18496;52.042;6.812;2023-03-23T08:40:04;12.90;99.90
31967;DHT22;18496;52.042;6.812;2023-03-23T08:42:41;12.80;99.90
31967;DHT22;18496;52.042;6.812;2023-03-23T08:45:05;12.70;99.90
31967;DHT22;18496;52.042;6.812;2023-03-23T08:47:22;12.60;99.90
31967;DHT22;18496;52.042;6.812;2023-03-23T08:49:44;12.60;99.90
31967;DHT22;18496;52.042;6.812;2023-03-23T08:52:08;12.50;99.90
31967;DHT22;18496;52.042;6.812;2023-03-23T08:54:32;12.50;99.90
31967;DHT22;18496;52.042;6.812;2023-03-23T08:57:03;12.60;99.90
31967;DHT22;18496;52.042;6.812;2023-03-23T08:59:07;12.60;99.90
31967;DHT22;18496;52.042;6.812;2023-03-23T09:01:24;12.60;99.90
31967;DHT22;18496;52.042;6.812;2023-03-23T09:03:38;12.70;99.90
31967;DHT22;18496;52.042;6.812;2023-03-23T09:06:01;12.70;99.90
31967;DHT22;18496;52.042;6.812;2023-03-23T09:08:20;12.70;99.90
31967;DHT22;18496;52.042;6.812;2023-03-23T09:10:25;12.80;99.90
31967;DHT22;18496;52.042;6.812;2023-03-23T09:12:30;12.80;99.90
31967;DHT22;18496;52.042;6.812;2023-03-23T09:14:34;12.80;99.90
31967;DHT22;18496;52.042;6.812;2023-03-23T09:16:37;12.90;99.90
31967;DHT22;18496;52.042;6.812;2023-03-23T09:18:41;12.90;99.90
31967;DHT22;18496;52.042;6.812;2023-03-23T09:20:44;12.90;99.90
31967;DHT22;18496;52.042;6.812;2023-03-23T09:22:49;12.90;99.90
31967;DHT22;18496;52.042;6.812;2023-03-23T09:24:53;13.00;99.90
31967;DHT22;18496;52.042;6.812;2023-03-23T09:26:57;13.00;99.90
31967;DHT22;18496;52.042;6.812;2023-03-23T09:29:02;13.00;99.90
31967;DHT22;18496;52.042;6.812;2023-03-23T09:31:05;13.00;99.90
31967;DHT22;18496;52.042;6.812;2023-03-23T09:33:09;13.00;99.90
31967;DHT22;18496;52.042;6.812;2023-03-23T09:35:13;13.00;99.90
31967;DHT22;18496;52.042;6.812;2023-03-23T09:37:17;13.00;99.90
31967;DHT22;18496;52.042;6.812;2023-03-23T09:39:20;13.00;99.90
31967;DHT22;18496;52.042;6.812;2023-03-23T09:43:43;13.00;99.90
31967;DHT22;18496;52.042;6.812;2023-03-23T09:45:59;13.00;99.90
31967;DHT22;18496;52.042;6.812;2023-03-23T09:48:17;13.00;99.90
31967;DHT22;18496;52.042;6.812;2023-03-23T09:50:26;13.00;99.90
31967;DHT22;18496;52.042;6.812;2023-03-23T09:52:55;13.00;99.90
31967;DHT22;18496;52.042;6.812;2023-03-23T09:55:00;13.00;99.90
31967;DHT22;18496;52.042;6.812;2023-03-23T09:57:05;13.00;99.90
31967;DHT22;18496;52.042;6.812;2023-03-23T09:59:18;13.00;99.90
31967;DHT22;18496;52.042;6.812;2023-03-23T10:01:34;13.00;99.90
31967;DHT22;18496;52.042;6.812;2023-03-23T10:03:39;13.10;99.90
31967;DHT22;18496;52.042;6.812;2023-03-23T10:05:50;13.10;99.90
31967;DHT22;18496;52.042;6.812;2023-03-23T10:07:54;13.00;99.90
31967;DHT22;18496;52.042;6.812;2023-03-23T10:10:00;13.00;99.90
31967;DHT22;18496;52.042;6.812;2023-03-23T10:14:27;13.00;99.90
31967;DHT22;18496;52.042;6.812;2023-03-23T10:16:36;13.00;99.90
31967;DHT22;18496;52.042;6.812;2023-03-23T10:18:41;13.00;99.90
31967;DHT22;18496;52.042;6.812;2023-03-23T10:20:53;13.00;99.90
31967;DHT22;18496;52.042;6.812;2023-03-23T10:25:23;13.00;99.90
31967;DHT22;18496;52.042;6.812;2023-03-23T10:27:38;13.00;99.90
31967;DHT22;18496;52.042;6.812;2023-03-23T10:29:46;12.90;99.90
31967;DHT22;18496;52.042;6.812;2023-03-23T10:31:58;13.00;99.90
31967;DHT22;18496;52.042;6.812;2023-03-23T10:34:04;13.10;99.90
31967;DHT22;18496;52.042;6.812;2023-03-23T10:36:16;13.10;99.90
31967;DHT22;18496;52.042;6.812;2023-03-23T10:38:23;13.20;99.90
31967;DHT22;18496;52.042;6.812;2023-03-23T10:40:29;13.20;99.90
31967;DHT22;18496;52.042;6.812;2023-03-23T10:42:33;13.30;99.90
31967;DHT22;18496;52.042;6.812;2023-03-23T10:44:37;13.30;99.90
31967;DHT22;18496;52.042;6.812;2023-03-23T10:48:45;13.40;99.90
31967;DHT22;18496;52.042;6.812;2023-03-23T10:50:52;13.40;99.90
31967;DHT22;18496;52.042;6.812;2023-03-23T10:52:58;13.40;99.90
31967;DHT22;18496;52.042;6.812;2023-03-23T10:55:07;13.40;99.90
31967;DHT22;18496;52.042;6.812;2023-03-23T10:57:13;13.40;99.90
31967;DHT22;18496;52.042;6.812;2023-03-23T10:59:19;13.50;99.90
31967;DHT22;18496;52.042;6.812;2023-03-23T11:01:30;13.50;99.90
31967;DHT22;18496;52.042;6.812;2023-03-23T11:03:45;13.50;99.90
31967;DHT22;18496;52.042;6.812;2023-03-23T11:06:02;13.50;99.90
31967;DHT22;18496;52.042;6.812;2023-03-23T11:08:14;13.60;99.90
31967;DHT22;18496;52.042;6.812;2023-03-23T11:10:34;13.70;99.90
31967;DHT22;18496;52.042;6.812;2023-03-23T11:12:38;13.70;99.90
31967;DHT22;18496;52.042;6.812;2023-03-23T11:14:42;13.80;99.90
31967;DHT22;18496;52.042;6.812;2023-03-23T11:16:51;14.00;99.90
31967;DHT22;18496;52.042;6.812;2023-03-23T11:19:00;14.10;99.90
31967;DHT22;18496;52.042;6.812;2023-03-23T11:21:15;14.10;99.90
31967;DHT22;18496;52.042;6.812;2023-03-23T11:23:20;14.20;99.90
31967;DHT22;18496;52.042;6.812;2023-03-23T11:25:24;14.20;99.90
31967;DHT22;18496;52.042;6.812;2023-03-23T11:27:29;14.20;99.90
31967;DHT22;18496;52.042;6.812;2023-03-23T11:29:34;14.20;99.90
31967;DHT22;18496;52.042;6.812;2023-03-23T11:31:46;14.20;99.90
31967;DHT22;18496;52.042;6.812;2023-03-23T11:33:53;14.30;99.90
31967;DHT22;18496;52.042;6.812;2023-03-23T11:35:58;14.40;99.90
31967;DHT22;18496;52.042;6.812;2023-03-23T11:38:01;14.50;99.90
31967;DHT22;18496;52.042;6.812;2023-03-23T11:42:17;14.70;99.90
31967;DHT22;18496;52.042;6.812;2023-03-23T11:44:23;14.70;99.90
31967;DHT22;18496;52.042;6.812;2023-03-23T11:46:34;14.80;99.90
31967;DHT22;18496;52.042;6.812;2023-03-23T11:48:46;14.80;99.90
31967;DHT22;18496;52.042;6.812;2023-03-23T11:53:00;14.90;99.90
31967;DHT22;18496;52.042;6.812;2023-03-23T11:55:18;14.90;99.90
31967;DHT22;18496;52.042;6.812;2023-03-23T11:57:22;15.00;99.90
31967;DHT22;18496;52.042;6.812;2023-03-23T11:59:29;15.00;99.90
31967;DHT22;18496;52.042;6.812;2023-03-23T12:01:48;15.00;99.90
31967;DHT22;18496;52.042;6.812;2023-03-23T12:06:34;15.00;99.90
31967;DHT22;18496;52.042;6.812;2023-03-23T12:12:56;15.00;99.90
31967;DHT22;18496;52.042;6.812;2023-03-23T12:17:33;15.00;99.90
31967;DHT22;18496;52.042;6.812;2023-03-23T12:22:11;15.00;99.90
31967;DHT22;18496;52.042;6.812;2023-03-23T12:30:57;15.10;99.90
31967;DHT22;18496;52.042;6.812;2023-03-23T12:33:09;15.10;99.90
31967;DHT22;18496;52.042;6.812;2023-03-23T12:44:06;15.40;99.90
31967;DHT22;18496;52.042;6.812;2023-03-23T12:48:43;15.50;99.90
31967;DHT22;18496;52.042;6.812;2023-03-23T12:53:03;15.60;99.90
31967;DHT22;18496;52.042;6.812;2023-03-23T12:55:21;15.70;99.90
31967;DHT22;18496;52.042;6.812;2023-03-23T12:57:29;15.80;99.90
31967;DHT22;18496;52.042;6.812;2023-03-23T12:59:54;15.90;99.90
31967;DHT22;18496;52.042;6.812;2023-03-23T13:02:02;16.00;99.90
31967;DHT22;18496;52.042;6.812;2023-03-23T13:04:09;16.10;99.90
31967;DHT22;18496;52.042;6.812;2023-03-23T13:06:22;16.20;99.90
31967;DHT22;18496;52.042;6.812;2023-03-23T13:08:50;16.40;99.90
31967;DHT22;18496;52.042;6.812;2023-03-23T13:11:01;16.40;99.90
31967;DHT22;18496;52.042;6.812;2023-03-23T13:13:10;16.50;99.90
31967;DHT22;18496;52.042;6.812;2023-03-23T13:15:28;16.60;99.90
31967;DHT22;18496;52.042;6.812;2023-03-23T13:17:43;16.60;99.90
31967;DHT22;18496;52.042;6.812;2023-03-23T13:24:36;16.70;99.90
31967;DHT22;18496;52.042;6.812;2023-03-23T13:26:51;16.70;99.90
31967;DHT22;18496;52.042;6.812;2023-03-23T13:29:13;16.80;99.90
31967;DHT22;18496;52.042;6.812;2023-03-23T13:31:19;16.80;99.90
31967;DHT22;18496;52.042;6.812;2023-03-23T13:33:29;16.80;99.90
31967;DHT22;18496;52.042;6.812;2023-03-23T13:35:35;16.90;99.90
31967;DHT22;18496;52.042;6.812;2023-03-23T13:37:47;16.90;99.90
31967;DHT22;18496;52.042;6.812;2023-03-23T13:42:01;16.80;99.90
31967;DHT22;18496;52.042;6.812;2023-03-23T13:44:20;16.80;99.90
31967;DHT22;18496;52.042;6.812;2023-03-23T13:46:27;16.80;99.90
31967;DHT22;18496;52.042;6.812;2023-03-23T13:48:39;16.90;99.90
31967;DHT22;18496;52.042;6.812;2023-03-23T13:50:44;16.90;99.90
31967;DHT22;18496;52.042;6.812;2023-03-23T13:52:52;16.90;99.90
31967;DHT22;18496;52.042;6.812;2023-03-23T13:55:12;16.90;99.90
31967;DHT22;18496;52.042;6.812;2023-03-23T13:57:33;16.90;99.90
31967;DHT22;18496;52.042;6.812;2023-03-23T13:59:48;16.90;99.90
31967;DHT22;18496;52.042;6.812;2023-03-23T14:01:52;16.90;99.90
31967;DHT22;18496;52.042;6.812;2023-03-23T14:03:56;16.80;99.90
31967;DHT22;18496;52.042;6.812;2023-03-23T14:06:06;16.80;99.90
31967;DHT22;18496;52.042;6.812;2023-03-23T14:10:36;16.70;99.90
31967;DHT22;18496;52.042;6.812;2023-03-23T14:12:41;16.60;99.90
31967;DHT22;18496;52.042;6.812;2023-03-23T14:14:45;16.60;99.90
31967;DHT22;18496;52.042;6.812;2023-03-23T14:16:50;16.60;99.90
31967;DHT22;18496;52.042;6.812;2023-03-23T14:18:59;16.50;99.90
31967;DHT22;18496;52.042;6.812;2023-03-23T14:21:03;16.40;99.90
31967;DHT22;18496;52.042;6.812;2023-03-23T14:23:14;16.40;99.90
31967;DHT22;18496;52.042;6.812;2023-03-23T14:25:18;16.40;99.90
31967;DHT22;18496;52.042;6.812;2023-03-23T14:27:24;16.40;99.90
31967;DHT22;18496;52.042;6.812;2023-03-23T14:29:27;16.40;99.90
31967;DHT22;18496;52.042;6.812;2023-03-23T14:31:31;16.30;99.90
31967;DHT22;18496;52.042;6.812;2023-03-23T14:33:37;16.30;99.90
31967;DHT22;18496;52.042;6.812;2023-03-23T14:35:42;16.30;99.90
31967;DHT22;18496;52.042;6.812;2023-03-23T14:37:46;16.30;99.90
31967;DHT22;18496;52.042;6.812;2023-03-23T14:39:51;16.30;99.90
31967;DHT22;18496;52.042;6.812;2023-03-23T14:41:55;16.40;99.90
31967;DHT22;18496;52.042;6.812;2023-03-23T14:44:00;16.40;99.90
31967;DHT22;18496;52.042;6.812;2023-03-23T14:46:06;16.40;99.90
31967;DHT22;18496;52.042;6.812;2023-03-23T14:48:12;16.40;99.90
31967;DHT22;18496;52.042;6.812;2023-03-23T14:52:32;16.30;99.90
31967;DHT22;18496;52.042;6.812;2023-03-23T14:54:36;16.30;99.90
31967;DHT22;18496;52.042;6.812;2023-03-23T14:56:41;16.30;99.90
31967;DHT22;18496;52.042;6.812;2023-03-23T14:58:47;16.20;99.90
31967;DHT22;18496;52.042;6.812;2023-03-23T15:00:56;16.20;99.90